Gandsi, Mississippi
Current Conditions -  °F | °C
As of 4:55 PM on Wednesday 26 Nov 2014 (Local Time) from KPIB Reporting Station
Clear Clear  
Wind Chill: 61°   Ceiling: Unl
Heat Index: 61°   Visibility: 10mi
Dew Point: 36°   Wind: 8mph
Humidity: 39%   Direction: 210°SSW
Pressure: 30.13"   Gusts: NA
Location:  31.5166°N, 89.4877°W
Report Text: KPIB 262255Z AUTO 21007KT 10SM CLR 16/02 A3013 RMK AO1
Loading
Personal Weather Stations






























Interactive Weather Map New forecast layout! Learn more

10-Day Weather Forecast

Advertisements
Track Severe Weather on mobile